sensor_id;sensor_type;location;lat;lon;timestamp;temperature;humidity
27276;DHT22;14772;47.398;8.080;2022-08-19T00:00:50;20.80;99.90
27276;DHT22;14772;47.398;8.080;2022-08-19T00:05:48;20.90;99.90
27276;DHT22;14772;47.398;8.080;2022-08-19T00:10:45;20.90;99.90
27276;DHT22;14772;47.398;8.080;2022-08-19T00:15:42;20.90;99.90
27276;DHT22;14772;47.398;8.080;2022-08-19T00:20:39;20.80;99.90
27276;DHT22;14772;47.398;8.080;2022-08-19T00:25:37;20.80;99.90
27276;DHT22;14772;47.398;8.080;2022-08-19T00:30:34;20.80;99.90
27276;DHT22;14772;47.398;8.080;2022-08-19T00:35:31;20.90;99.90
27276;DHT22;14772;47.398;8.080;2022-08-19T00:40:28;20.90;99.90
27276;DHT22;14772;47.398;8.080;2022-08-19T00:45:27;20.80;99.90
27276;DHT22;14772;47.398;8.080;2022-08-19T00:50:24;20.80;99.90
27276;DHT22;14772;47.398;8.080;2022-08-19T00:55:25;20.50;99.90
27276;DHT22;14772;47.398;8.080;2022-08-19T01:00:25;20.30;99.90
27276;DHT22;14772;47.398;8.080;2022-08-19T01:05:25;20.50;99.90
27276;DHT22;14772;47.398;8.080;2022-08-19T01:10:25;20.70;99.90
27276;DHT22;14772;47.398;8.080;2022-08-19T01:15:26;20.80;99.90
27276;DHT22;14772;47.398;8.080;2022-08-19T01:20:25;20.80;99.90
27276;DHT22;14772;47.398;8.080;2022-08-19T01:25:24;20.80;99.90
27276;DHT22;14772;47.398;8.080;2022-08-19T01:30:23;20.80;99.90
27276;DHT22;14772;47.398;8.080;2022-08-19T01:35:23;20.80;99.90
27276;DHT22;14772;47.398;8.080;2022-08-19T01:40:23;20.80;99.90
27276;DHT22;14772;47.398;8.080;2022-08-19T01:45:23;20.70;99.90
27276;DHT22;14772;47.398;8.080;2022-08-19T01:50:22;20.80;99.90
27276;DHT22;14772;47.398;8.080;2022-08-19T01:55:21;20.70;99.90
27276;DHT22;14772;47.398;8.080;2022-08-19T02:00:21;20.70;99.90
27276;DHT22;14772;47.398;8.080;2022-08-19T02:05:19;20.80;99.90
27276;DHT22;14772;47.398;8.080;2022-08-19T02:10:19;20.70;99.90
27276;DHT22;14772;47.398;8.080;2022-08-19T02:15:17;20.80;99.90
27276;DHT22;14772;47.398;8.080;2022-08-19T02:20:14;20.70;99.90
27276;DHT22;14772;47.398;8.080;2022-08-19T02:25:13;20.80;99.90
27276;DHT22;14772;47.398;8.080;2022-08-19T02:30:15;20.80;99.90
27276;DHT22;14772;47.398;8.080;2022-08-19T02:35:13;20.80;99.90
27276;DHT22;14772;47.398;8.080;2022-08-19T02:40:11;20.80;99.90
27276;DHT22;14772;47.398;8.080;2022-08-19T02:45:10;20.80;99.90
27276;DHT22;14772;47.398;8.080;2022-08-19T02:50:08;20.80;99.90
27276;DHT22;14772;47.398;8.080;2022-08-19T02:55:07;20.80;99.90
27276;DHT22;14772;47.398;8.080;2022-08-19T03:00:07;20.80;99.90
27276;DHT22;14772;47.398;8.080;2022-08-19T03:05:07;20.80;99.90
27276;DHT22;14772;47.398;8.080;2022-08-19T03:10:07;20.80;99.90
27276;DHT22;14772;47.398;8.080;2022-08-19T03:15:06;20.80;99.90
27276;DHT22;14772;47.398;8.080;2022-08-19T03:20:05;20.80;99.90
27276;DHT22;14772;47.398;8.080;2022-08-19T03:25:02;20.80;99.90
27276;DHT22;14772;47.398;8.080;2022-08-19T03:30:00;20.80;99.90
27276;DHT22;14772;47.398;8.080;2022-08-19T03:34:57;20.80;99.90
27276;DHT22;14772;47.398;8.080;2022-08-19T03:39:54;20.80;99.90
27276;DHT22;14772;47.398;8.080;2022-08-19T03:44:51;20.60;99.90
27276;DHT22;14772;47.398;8.080;2022-08-19T03:49:49;20.50;99.90
27276;DHT22;14772;47.398;8.080;2022-08-19T03:54:46;20.50;99.90
27276;DHT22;14772;47.398;8.080;2022-08-19T03:59:43;20.60;99.90
27276;DHT22;14772;47.398;8.080;2022-08-19T04:04:42;20.70;99.90
27276;DHT22;14772;47.398;8.080;2022-08-19T04:09:39;20.80;99.90
27276;DHT22;14772;47.398;8.080;2022-08-19T04:14:37;20.70;99.90
27276;DHT22;14772;47.398;8.080;2022-08-19T04:19:35;20.70;99.90
27276;DHT22;14772;47.398;8.080;2022-08-19T04:24:33;20.80;99.90
27276;DHT22;14772;47.398;8.080;2022-08-19T04:29:33;20.70;99.90
27276;DHT22;14772;47.398;8.080;2022-08-19T04:34:30;20.70;99.90
27276;DHT22;14772;47.398;8.080;2022-08-19T04:39:29;20.60;99.90
27276;DHT22;14772;47.398;8.080;2022-08-19T04:44:27;20.70;99.90
27276;DHT22;14772;47.398;8.080;2022-08-19T04:49:24;20.70;99.90
27276;DHT22;14772;47.398;8.080;2022-08-19T04:54:23;20.70;99.90
27276;DHT22;14772;47.398;8.080;2022-08-19T04:59:21;20.70;99.90
27276;DHT22;14772;47.398;8.080;2022-08-19T05:04:20;20.70;99.90
27276;DHT22;14772;47.398;8.080;2022-08-19T05:09:17;20.70;99.90
27276;DHT22;14772;47.398;8.080;2022-08-19T05:14:14;20.70;99.90
27276;DHT22;14772;47.398;8.080;2022-08-19T05:19:11;20.70;99.90
27276;DHT22;14772;47.398;8.080;2022-08-19T05:24:09;20.70;99.90
27276;DHT22;14772;47.398;8.080;2022-08-19T05:29:07;20.70;99.90
27276;DHT22;14772;47.398;8.080;2022-08-19T05:34:05;20.60;99.90
27276;DHT22;14772;47.398;8.080;2022-08-19T05:39:03;20.60;99.90
27276;DHT22;14772;47.398;8.080;2022-08-19T05:44:04;20.70;99.90
27276;DHT22;14772;47.398;8.080;2022-08-19T05:49:01;20.70;99.90
27276;DHT22;14772;47.398;8.080;2022-08-19T05:53:58;20.70;99.90
27276;DHT22;14772;47.398;8.080;2022-08-19T05:58:55;20.60;99.90
27276;DHT22;14772;47.398;8.080;2022-08-19T06:03:53;20.50;99.90
27276;DHT22;14772;47.398;8.080;2022-08-19T06:08:50;20.60;99.90
27276;DHT22;14772;47.398;8.080;2022-08-19T06:13:48;20.60;99.90
27276;DHT22;14772;47.398;8.080;2022-08-19T06:18:46;20.70;99.90
27276;DHT22;14772;47.398;8.080;2022-08-19T06:23:43;20.80;99.90
27276;DHT22;14772;47.398;8.080;2022-08-19T06:28:40;20.80;99.90
27276;DHT22;14772;47.398;8.080;2022-08-19T06:33:37;20.80;99.90
27276;DHT22;14772;47.398;8.080;2022-08-19T06:38:34;20.80;99.90
27276;DHT22;14772;47.398;8.080;2022-08-19T06:43:31;20.80;99.90
27276;DHT22;14772;47.398;8.080;2022-08-19T06:48:30;20.80;99.90
27276;DHT22;14772;47.398;8.080;2022-08-19T06:53:27;20.90;99.90
27276;DHT22;14772;47.398;8.080;2022-08-19T06:58:24;20.80;99.90
27276;DHT22;14772;47.398;8.080;2022-08-19T07:03:21;20.70;99.90
27276;DHT22;14772;47.398;8.080;2022-08-19T07:08:18;20.80;99.90
27276;DHT22;14772;47.398;8.080;2022-08-19T07:13:15;20.80;99.90
27276;DHT22;14772;47.398;8.080;2022-08-19T07:18:13;20.70;99.90
27276;DHT22;14772;47.398;8.080;2022-08-19T07:23:11;20.70;99.90
27276;DHT22;14772;47.398;8.080;2022-08-19T07:28:08;20.70;99.90
27276;DHT22;14772;47.398;8.080;2022-08-19T07:33:05;20.70;99.90
27276;DHT22;14772;47.398;8.080;2022-08-19T07:38:02;20.70;99.90
27276;DHT22;14772;47.398;8.080;2022-08-19T07:43:00;20.80;99.90
27276;DHT22;14772;47.398;8.080;2022-08-19T07:47:57;20.80;99.90
27276;DHT22;14772;47.398;8.080;2022-08-19T07:52:54;20.80;99.90
27276;DHT22;14772;47.398;8.080;2022-08-19T07:57:51;20.80;99.90
27276;DHT22;14772;47.398;8.080;2022-08-19T08:02:48;20.80;99.90
27276;DHT22;14772;47.398;8.080;2022-08-19T08:07:46;20.90;99.90
27276;DHT22;14772;47.398;8.080;2022-08-19T08:12:43;20.80;99.90
27276;DHT22;14772;47.398;8.080;2022-08-19T08:17:41;21.00;99.90
27276;DHT22;14772;47.398;8.080;2022-08-19T08:22:42;20.90;99.90
27276;DHT22;14772;47.398;8.080;2022-08-19T08:27:42;20.90;99.90
27276;DHT22;14772;47.398;8.080;2022-08-19T08:32:40;20.90;99.90
27276;DHT22;14772;47.398;8.080;2022-08-19T08:37:38;21.00;99.90
27276;DHT22;14772;47.398;8.080;2022-08-19T08:42:36;21.00;99.90
27276;DHT22;14772;47.398;8.080;2022-08-19T08:47:37;21.00;99.90
27276;DHT22;14772;47.398;8.080;2022-08-19T08:52:39;21.10;99.90
27276;DHT22;14772;47.398;8.080;2022-08-19T08:57:39;21.10;99.90
27276;DHT22;14772;47.398;8.080;2022-08-19T09:02:38;21.10;99.90
27276;DHT22;14772;47.398;8.080;2022-08-19T09:07:41;21.10;99.90
27276;DHT22;14772;47.398;8.080;2022-08-19T09:12:42;21.20;99.90
27276;DHT22;14772;47.398;8.080;2022-08-19T09:17:40;21.20;99.90
27276;DHT22;14772;47.398;8.080;2022-08-19T09:22:39;21.30;99.90
27276;DHT22;14772;47.398;8.080;2022-08-19T09:27:38;21.30;99.90
27276;DHT22;14772;47.398;8.080;2022-08-19T09:32:36;21.30;99.90
27276;DHT22;14772;47.398;8.080;2022-08-19T09:37:33;21.20;99.90
27276;DHT22;14772;47.398;8.080;2022-08-19T09:42:30;21.30;99.90
27276;DHT22;14772;47.398;8.080;2022-08-19T09:47:27;21.30;99.90
27276;DHT22;14772;47.398;8.080;2022-08-19T09:52:24;21.20;99.90
27276;DHT22;14772;47.398;8.080;2022-08-19T09:57:21;21.20;99.90
27276;DHT22;14772;47.398;8.080;2022-08-19T10:02:19;21.30;99.90
27276;DHT22;14772;47.398;8.080;2022-08-19T10:07:16;21.30;99.90
27276;DHT22;14772;47.398;8.080;2022-08-19T10:12:13;21.30;99.90
27276;DHT22;14772;47.398;8.080;2022-08-19T10:17:10;21.40;99.90
27276;DHT22;14772;47.398;8.080;2022-08-19T10:22:08;21.50;99.90
27276;DHT22;14772;47.398;8.080;2022-08-19T10:27:05;21.50;99.90
27276;DHT22;14772;47.398;8.080;2022-08-19T10:32:04;21.60;99.90
27276;DHT22;14772;47.398;8.080;2022-08-19T10:37:03;21.60;99.90
27276;DHT22;14772;47.398;8.080;2022-08-19T10:42:05;21.70;99.90
27276;DHT22;14772;47.398;8.080;2022-08-19T10:47:03;21.70;99.90
27276;DHT22;14772;47.398;8.080;2022-08-19T10:52:00;21.70;99.90
27276;DHT22;14772;47.398;8.080;2022-08-19T10:56:57;21.80;99.90
27276;DHT22;14772;47.398;8.080;2022-08-19T11:01:59;21.90;99.90
27276;DHT22;14772;47.398;8.080;2022-08-19T11:06:56;22.00;99.90
27276;DHT22;14772;47.398;8.080;2022-08-19T11:11:54;22.00;99.90
27276;DHT22;14772;47.398;8.080;2022-08-19T11:16:52;22.00;99.90
27276;DHT22;14772;47.398;8.080;2022-08-19T11:21:50;22.10;99.90
27276;DHT22;14772;47.398;8.080;2022-08-19T11:26:49;22.10;99.90
27276;DHT22;14772;47.398;8.080;2022-08-19T11:31:47;22.10;99.90
27276;DHT22;14772;47.398;8.080;2022-08-19T11:36:46;22.10;99.90
27276;DHT22;14772;47.398;8.080;2022-08-19T11:41:43;22.10;99.90
27276;DHT22;14772;47.398;8.080;2022-08-19T11:46:43;22.20;99.90
27276;DHT22;14772;47.398;8.080;2022-08-19T11:51:40;22.10;99.90
27276;DHT22;14772;47.398;8.080;2022-08-19T11:56:38;22.20;99.90
27276;DHT22;14772;47.398;8.080;2022-08-19T12:01:36;22.30;99.90
27276;DHT22;14772;47.398;8.080;2022-08-19T12:06:33;22.20;99.90
27276;DHT22;14772;47.398;8.080;2022-08-19T12:11:31;22.20;99.90
27276;DHT22;14772;47.398;8.080;2022-08-19T12:16:29;22.20;99.90
27276;DHT22;14772;47.398;8.080;2022-08-19T12:21:27;22.30;99.90
27276;DHT22;14772;47.398;8.080;2022-08-19T12:26:26;22.30;99.90
27276;DHT22;14772;47.398;8.080;2022-08-19T12:31:23;22.20;99.90
27276;DHT22;14772;47.398;8.080;2022-08-19T12:36:20;22.20;99.90
27276;DHT22;14772;47.398;8.080;2022-08-19T12:41:18;22.20;99.90
27276;DHT22;14772;47.398;8.080;2022-08-19T12:46:16;22.20;99.90
27276;DHT22;14772;47.398;8.080;2022-08-19T12:51:16;22.10;99.90
27276;DHT22;14772;47.398;8.080;2022-08-19T12:56:15;22.20;99.90
27276;DHT22;14772;47.398;8.080;2022-08-19T13:01:14;22.20;99.90
27276;DHT22;14772;47.398;8.080;2022-08-19T13:06:11;22.30;99.90
27276;DHT22;14772;47.398;8.080;2022-08-19T13:11:12;22.40;99.90
27276;DHT22;14772;47.398;8.080;2022-08-19T13:16:11;22.30;99.90
27276;DHT22;14772;47.398;8.080;2022-08-19T13:21:09;22.40;99.90
27276;DHT22;14772;47.398;8.080;2022-08-19T13:26:08;22.50;99.90
27276;DHT22;14772;47.398;8.080;2022-08-19T13:31:06;22.50;99.90
27276;DHT22;14772;47.398;8.080;2022-08-19T13:36:04;22.50;99.90
27276;DHT22;14772;47.398;8.080;2022-08-19T13:41:05;22.70;99.90
27276;DHT22;14772;47.398;8.080;2022-08-19T13:46:08;22.70;99.90
27276;DHT22;14772;47.398;8.080;2022-08-19T13:51:05;22.70;99.90
27276;DHT22;14772;47.398;8.080;2022-08-19T13:56:06;22.80;99.90
27276;DHT22;14772;47.398;8.080;2022-08-19T14:01:04;22.90;99.90
27276;DHT22;14772;47.398;8.080;2022-08-19T14:06:02;22.80;99.90
27276;DHT22;14772;47.398;8.080;2022-08-19T14:10:59;22.70;99.90
27276;DHT22;14772;47.398;8.080;2022-08-19T14:15:57;22.60;99.90
27276;DHT22;14772;47.398;8.080;2022-08-19T14:20:54;22.60;99.90
27276;DHT22;14772;47.398;8.080;2022-08-19T14:25:51;22.40;99.90
27276;DHT22;14772;47.398;8.080;2022-08-19T14:30:48;22.20;99.90
27276;DHT22;14772;47.398;8.080;2022-08-19T14:35:45;22.10;99.90
27276;DHT22;14772;47.398;8.080;2022-08-19T14:40:43;21.90;99.90
27276;DHT22;14772;47.398;8.080;2022-08-19T14:45:40;21.90;99.90
27276;DHT22;14772;47.398;8.080;2022-08-19T14:50:37;21.80;99.90
27276;DHT22;14772;47.398;8.080;2022-08-19T14:55:39;21.70;99.90
27276;DHT22;14772;47.398;8.080;2022-08-19T15:00:37;21.70;99.90
27276;DHT22;14772;47.398;8.080;2022-08-19T15:05:34;21.70;99.90
27276;DHT22;14772;47.398;8.080;2022-08-19T15:10:31;21.60;99.90
27276;DHT22;14772;47.398;8.080;2022-08-19T15:15:28;21.60;99.90
27276;DHT22;14772;47.398;8.080;2022-08-19T15:20:25;21.70;99.90
27276;DHT22;14772;47.398;8.080;2022-08-19T15:25:23;21.70;99.90
27276;DHT22;14772;47.398;8.080;2022-08-19T15:30:23;21.60;99.90
27276;DHT22;14772;47.398;8.080;2022-08-19T15:35:22;21.60;99.90
27276;DHT22;14772;47.398;8.080;2022-08-19T15:40:21;21.60;99.90
27276;DHT22;14772;47.398;8.080;2022-08-19T15:45:20;21.60;99.90
27276;DHT22;14772;47.398;8.080;2022-08-19T15:50:19;21.50;99.90
27276;DHT22;14772;47.398;8.080;2022-08-19T15:55:17;21.70;99.90
27276;DHT22;14772;47.398;8.080;2022-08-19T16:00:15;21.70;99.90
27276;DHT22;14772;47.398;8.080;2022-08-19T16:05:13;21.80;99.90
27276;DHT22;14772;47.398;8.080;2022-08-19T16:10:11;21.80;99.90
27276;DHT22;14772;47.398;8.080;2022-08-19T16:15:10;21.80;99.90
27276;DHT22;14772;47.398;8.080;2022-08-19T16:20:10;21.80;99.90
27276;DHT22;14772;47.398;8.080;2022-08-19T16:25:08;21.80;99.90
27276;DHT22;14772;47.398;8.080;2022-08-19T16:30:08;21.80;99.90
27276;DHT22;14772;47.398;8.080;2022-08-19T16:35:07;21.90;99.90
27276;DHT22;14772;47.398;8.080;2022-08-19T16:40:06;21.80;99.90
27276;DHT22;14772;47.398;8.080;2022-08-19T16:45:05;21.90;99.90
27276;DHT22;14772;47.398;8.080;2022-08-19T16:50:03;21.70;99.90
27276;DHT22;14772;47.398;8.080;2022-08-19T16:55:01;21.70;99.90
27276;DHT22;14772;47.398;8.080;2022-08-19T16:59:58;21.50;99.90
27276;DHT22;14772;47.398;8.080;2022-08-19T17:04:55;21.50;99.90
27276;DHT22;14772;47.398;8.080;2022-08-19T17:09:52;21.50;99.90
27276;DHT22;14772;47.398;8.080;2022-08-19T17:14:49;21.40;99.90
27276;DHT22;14772;47.398;8.080;2022-08-19T17:19:47;21.40;99.90
27276;DHT22;14772;47.398;8.080;2022-08-19T17:24:44;21.40;99.90
27276;DHT22;14772;47.398;8.080;2022-08-19T17:29:42;21.40;99.90
27276;DHT22;14772;47.398;8.080;2022-08-19T17:34:39;21.20;99.90
27276;DHT22;14772;47.398;8.080;2022-08-19T17:39:36;21.00;99.90
27276;DHT22;14772;47.398;8.080;2022-08-19T17:44:33;20.90;99.90
27276;DHT22;14772;47.398;8.080;2022-08-19T17:49:31;21.00;99.90
27276;DHT22;14772;47.398;8.080;2022-08-19T17:54:28;21.00;99.90
27276;DHT22;14772;47.398;8.080;2022-08-19T17:59:25;21.00;99.90
27276;DHT22;14772;47.398;8.080;2022-08-19T18:04:24;21.00;99.90
27276;DHT22;14772;47.398;8.080;2022-08-19T18:09:23;21.00;99.90
27276;DHT22;14772;47.398;8.080;2022-08-19T18:14:21;21.00;99.90
27276;DHT22;14772;47.398;8.080;2022-08-19T18:19:18;20.90;99.90
27276;DHT22;14772;47.398;8.080;2022-08-19T18:24:16;20.90;99.90
27276;DHT22;14772;47.398;8.080;2022-08-19T18:29:14;20.90;99.90
27276;DHT22;14772;47.398;8.080;2022-08-19T18:34:12;20.90;99.90
27276;DHT22;14772;47.398;8.080;2022-08-19T18:39:09;20.90;99.90
27276;DHT22;14772;47.398;8.080;2022-08-19T18:44:06;21.00;99.90
27276;DHT22;14772;47.398;8.080;2022-08-19T18:49:04;21.00;99.90
27276;DHT22;14772;47.398;8.080;2022-08-19T18:54:01;21.00;99.90
27276;DHT22;14772;47.398;8.080;2022-08-19T18:58:59;21.00;99.90
27276;DHT22;14772;47.398;8.080;2022-08-19T19:03:59;21.00;99.90
27276;DHT22;14772;47.398;8.080;2022-08-19T19:08:57;20.90;99.90
27276;DHT22;14772;47.398;8.080;2022-08-19T19:13:54;21.00;99.90
27276;DHT22;14772;47.398;8.080;2022-08-19T19:18:51;20.90;99.90
27276;DHT22;14772;47.398;8.080;2022-08-19T19:23:49;20.90;99.90
27276;DHT22;14772;47.398;8.080;2022-08-19T19:28:46;20.90;99.90
27276;DHT22;14772;47.398;8.080;2022-08-19T19:33:44;20.90;99.90
27276;DHT22;14772;47.398;8.080;2022-08-19T19:38:42;20.80;99.90
27276;DHT22;14772;47.398;8.080;2022-08-19T19:43:39;20.80;99.90
27276;DHT22;14772;47.398;8.080;2022-08-19T19:48:36;20.80;99.90
27276;DHT22;14772;47.398;8.080;2022-08-19T19:53:34;20.70;99.90
27276;DHT22;14772;47.398;8.080;2022-08-19T19:58:32;20.70;99.90
27276;DHT22;14772;47.398;8.080;2022-08-19T20:03:31;20.60;99.90
27276;DHT22;14772;47.398;8.080;2022-08-19T20:08:28;20.50;99.90
27276;DHT22;14772;47.398;8.080;2022-08-19T20:13:25;20.60;99.90
27276;DHT22;14772;47.398;8.080;2022-08-19T20:18:23;20.60;99.90
27276;DHT22;14772;47.398;8.080;2022-08-19T20:23:21;20.60;99.90
27276;DHT22;14772;47.398;8.080;2022-08-19T20:28:18;20.60;99.90
27276;DHT22;14772;47.398;8.080;2022-08-19T20:33:16;20.60;99.90
27276;DHT22;14772;47.398;8.080;2022-08-19T20:38:13;20.60;99.90
27276;DHT22;14772;47.398;8.080;2022-08-19T20:43:11;20.60;99.90
27276;DHT22;14772;47.398;8.080;2022-08-19T20:48:09;20.60;99.90
27276;DHT22;14772;47.398;8.080;2022-08-19T20:53:11;20.50;99.90
27276;DHT22;14772;47.398;8.080;2022-08-19T20:58:08;20.50;99.90
27276;DHT22;14772;47.398;8.080;2022-08-19T21:03:06;20.50;99.90
27276;DHT22;14772;47.398;8.080;2022-08-19T21:08:03;20.40;99.90
27276;DHT22;14772;47.398;8.080;2022-08-19T21:13:00;20.40;99.90
27276;DHT22;14772;47.398;8.080;2022-08-19T21:17:58;20.40;99.90
27276;DHT22;14772;47.398;8.080;2022-08-19T21:22:55;20.40;99.90
27276;DHT22;14772;47.398;8.080;2022-08-19T21:27:52;20.40;99.90
27276;DHT22;14772;47.398;8.080;2022-08-19T21:32:49;20.30;99.90
27276;DHT22;14772;47.398;8.080;2022-08-19T21:37:46;20.30;99.90
27276;DHT22;14772;47.398;8.080;2022-08-19T21:42:44;20.30;99.90
27276;DHT22;14772;47.398;8.080;2022-08-19T21:47:42;20.30;99.90
27276;DHT22;14772;47.398;8.080;2022-08-19T21:52:40;20.20;99.90
27276;DHT22;14772;47.398;8.080;2022-08-19T21:57:37;20.20;99.90
27276;DHT22;14772;47.398;8.080;2022-08-19T22:02:34;20.20;99.90
27276;DHT22;14772;47.398;8.080;2022-08-19T22:07:32;20.20;99.90
27276;DHT22;14772;47.398;8.080;2022-08-19T22:12:32;20.20;99.90
27276;DHT22;14772;47.398;8.080;2022-08-19T22:17:29;20.20;99.90
27276;DHT22;14772;47.398;8.080;2022-08-19T22:22:29;20.10;99.90
27276;DHT22;14772;47.398;8.080;2022-08-19T22:27:27;20.00;99.90
27276;DHT22;14772;47.398;8.080;2022-08-19T22:32:24;20.00;99.90
27276;DHT22;14772;47.398;8.080;2022-08-19T22:37:21;19.80;99.90
27276;DHT22;14772;47.398;8.080;2022-08-19T22:42:19;19.80;99.90
27276;DHT22;14772;47.398;8.080;2022-08-19T22:47:17;19.90;99.90
27276;DHT22;14772;47.398;8.080;2022-08-19T22:52:16;19.90;99.90
27276;DHT22;14772;47.398;8.080;2022-08-19T22:57:14;19.80;99.90
27276;DHT22;14772;47.398;8.080;2022-08-19T23:07:23;19.70;99.90
27276;DHT22;14772;47.398;8.080;2022-08-19T23:12:27;19.70;99.90
27276;DHT22;14772;47.398;8.080;2022-08-19T23:17:25;19.70;99.90
27276;DHT22;14772;47.398;8.080;2022-08-19T23:22:22;19.60;99.90
27276;DHT22;14772;47.398;8.080;2022-08-19T23:27:19;19.60;99.90
27276;DHT22;14772;47.398;8.080;2022-08-19T23:32:17;19.60;99.90
27276;DHT22;14772;47.398;8.080;2022-08-19T23:37:15;19.60;99.90
27276;DHT22;14772;47.398;8.080;2022-08-19T23:42:12;19.60;99.90
27276;DHT22;14772;47.398;8.080;2022-08-19T23:47:09;19.50;99.90
27276;DHT22;14772;47.398;8.080;2022-08-19T23:52:06;19.60;99.90
27276;DHT22;14772;47.398;8.080;2022-08-19T23:57:04;19.50;99.90
